createdAt,value
2022-07-29T00:01:47.125Z,43.08
2022-07-29T00:04:16.860Z,43.58
2022-07-29T00:06:48.062Z,45.10
2022-07-29T00:09:17.444Z,45.85
2022-07-29T00:11:46.705Z,40.80
2022-07-29T00:14:16.402Z,46.05
2022-07-29T00:16:46.249Z,42.72
2022-07-29T00:19:15.656Z,44.58
2022-07-29T00:21:46.369Z,43.55
2022-07-29T00:24:16.066Z,43.35
2022-07-29T00:26:45.639Z,40.97
2022-07-29T00:29:33.484Z,40.80
2022-07-29T00:32:03.980Z,40.78
2022-07-29T00:34:51.180Z,39.88
2022-07-29T00:37:22.065Z,38.28
2022-07-29T00:39:51.646Z,36.58
2022-07-29T00:42:21.027Z,36.80
2022-07-29T00:44:50.428Z,35.25
2022-07-29T00:47:19.752Z,37.03
2022-07-29T00:49:49.367Z,39.35
2022-07-29T00:52:18.805Z,39.40
2022-07-29T00:54:49.528Z,35.58
2022-07-29T00:57:19.169Z,35.15
2022-07-29T00:59:48.434Z,32.67
2022-07-29T01:02:17.777Z,37.88
2022-07-29T01:04:47.281Z,35.35
2022-07-29T01:07:16.971Z,35.65
2022-07-29T01:09:47.589Z,39.58
2022-07-29T01:12:21.286Z,35.65
2022-07-29T01:14:52.325Z,35.97
2022-07-29T01:17:27.899Z,35.10
2022-07-29T01:20:05.171Z,37.33
2022-07-29T01:22:58.788Z,38.65
2022-07-29T01:26:28.897Z,37.28
2022-07-29T01:29:10.069Z,31.85
2022-07-29T01:31:58.663Z,32.40
2022-07-29T01:34:37.487Z,35.28
2022-07-29T01:37:17.737Z,36.00
2022-07-29T01:39:51.539Z,31.50
2022-07-29T01:42:29.909Z,31.38
2022-07-29T01:45:07.816Z,32.63
2022-07-29T01:47:44.371Z,33.80
2022-07-29T01:50:20.024Z,33.47
2022-07-29T01:52:58.350Z,34.78
2022-07-29T01:55:33.228Z,31.00
2022-07-29T01:58:05.974Z,34.25
2022-07-29T02:00:39.851Z,35.17
2022-07-29T02:03:15.994Z,38.28
2022-07-29T02:05:47.980Z,35.83
2022-07-29T02:08:20.856Z,35.45
2022-07-29T02:10:52.059Z,34.83
2022-07-29T02:13:24.104Z,37.88
2022-07-29T02:15:56.708Z,37.35
2022-07-29T02:18:30.021Z,38.97
2022-07-29T02:21:02.221Z,39.63
2022-07-29T02:23:45.155Z,42.25
2022-07-29T02:26:22.732Z,40.22
2022-07-29T02:28:56.241Z,42.08
2022-07-29T02:31:34.854Z,40.90
2022-07-29T02:34:07.304Z,44.83
2022-07-29T02:36:37.273Z,45.55
2022-07-29T02:39:10.836Z,43.00
2022-07-29T02:41:46.881Z,43.35
2022-07-29T02:44:19.815Z,39.08
2022-07-29T02:46:54.764Z,40.33
2022-07-29T02:49:40.767Z,38.38
2022-07-29T02:52:20.641Z,40.67
2022-07-29T02:54:57.027Z,37.35
2022-07-29T02:57:54.656Z,36.47
2022-07-29T03:00:29.858Z,36.65
2022-07-29T03:03:06.365Z,37.15
2022-07-29T03:05:36.597Z,37.63
2022-07-29T03:08:11.541Z,36.08
2022-07-29T03:10:45.191Z,33.35
2022-07-29T03:13:15.766Z,35.63
2022-07-29T03:15:46.407Z,32.83
2022-07-29T03:18:17.683Z,34.40
2022-07-29T03:20:47.080Z,33.58
2022-07-29T03:23:22.742Z,32.47
2022-07-29T03:25:52.700Z,37.30
2022-07-29T03:28:22.477Z,40.05
2022-07-29T03:30:56.691Z,38.53
2022-07-29T03:33:27.462Z,39.80
2022-07-29T03:35:56.791Z,38.60
2022-07-29T03:38:31.128Z,44.88
2022-07-29T03:41:05.739Z,38.20
2022-07-29T03:43:38.798Z,37.88
2022-07-29T03:46:20.117Z,38.70
2022-07-29T03:48:58.492Z,41.03
2022-07-29T03:51:33.729Z,42.92
2022-07-29T03:54:09.687Z,40.75
2022-07-29T03:56:44.247Z,43.78
2022-07-29T03:59:15.056Z,40.95
2022-07-29T04:01:47.019Z,43.60
2022-07-29T04:04:18.714Z,42.63
2022-07-29T04:06:49.147Z,43.53
2022-07-29T04:09:18.520Z,42.33
2022-07-29T04:11:59.156Z,43.13
2022-07-29T04:14:34.289Z,43.17
2022-07-29T04:17:05.052Z,42.90
2022-07-29T04:19:35.850Z,43.65
2022-07-29T04:22:05.311Z,43.53
2022-07-29T04:24:34.632Z,45.20
2022-07-29T04:27:03.814Z,43.72
2022-07-29T04:29:33.065Z,44.70
2022-07-29T04:32:02.358Z,42.53
2022-07-29T04:34:47.868Z,44.17
2022-07-29T04:37:17.251Z,40.80
2022-07-29T04:39:46.489Z,41.65
2022-07-29T04:42:16.105Z,42.58
2022-07-29T04:44:46.930Z,43.45
2022-07-29T04:47:19.777Z,43.63
2022-07-29T04:49:50.349Z,41.70
2022-07-29T04:52:19.662Z,47.25
2022-07-29T04:54:48.885Z,44.55
2022-07-29T04:57:18.113Z,42.10
2022-07-29T04:59:47.394Z,42.53
2022-07-29T05:02:16.921Z,45.90
2022-07-29T05:04:46.628Z,41.67
2022-07-29T05:07:17.474Z,45.38
2022-07-29T05:09:46.831Z,46.85
2022-07-29T05:12:16.103Z,46.85
2022-07-29T05:14:45.633Z,42.63
2022-07-29T05:17:14.941Z,44.03
2022-07-29T05:19:44.615Z,44.90
2022-07-29T05:22:20.843Z,43.60
2022-07-29T05:24:56.580Z,43.28
2022-07-29T05:27:26.075Z,43.83
2022-07-29T05:29:55.324Z,43.47
2022-07-29T05:32:24.567Z,43.72
2022-07-29T05:34:53.780Z,42.15
2022-07-29T05:37:24.957Z,44.20
2022-07-29T05:39:57.188Z,47.17
2022-07-29T05:42:28.848Z,46.92
2022-07-29T05:44:58.337Z,48.60
2022-07-29T05:47:28.064Z,48.35
2022-07-29T05:49:57.581Z,44.33
2022-07-29T05:52:28.277Z,46.33
2022-07-29T05:54:57.774Z,44.55
2022-07-29T05:57:27.301Z,43.63
2022-07-29T05:59:56.863Z,45.20
2022-07-29T06:02:28.790Z,45.22
2022-07-29T06:05:02.882Z,46.70
2022-07-29T06:07:36.411Z,44.33
2022-07-29T06:10:09.112Z,46.47
2022-07-29T06:12:38.735Z,43.83
2022-07-29T06:15:09.662Z,41.85
2022-07-29T06:17:40.093Z,43.78
2022-07-29T06:20:30.929Z,42.03
2022-07-29T06:23:04.537Z,44.20
2022-07-29T06:25:35.869Z,42.13
2022-07-29T06:28:08.367Z,37.92
2022-07-29T06:30:37.804Z,38.70
2022-07-29T06:33:07.508Z,39.53
2022-07-29T06:35:42.413Z,33.70
2022-07-29T06:38:31.006Z,34.30
2022-07-29T06:41:04.966Z,34.33
2022-07-29T06:43:50.219Z,30.77
2022-07-29T06:46:22.274Z,31.98
2022-07-29T06:48:53.047Z,30.85
2022-07-29T06:51:24.075Z,29.20
2022-07-29T06:53:59.564Z,30.38
2022-07-29T06:56:39.650Z,30.20
2022-07-29T06:59:11.231Z,30.08
2022-07-29T07:01:43.158Z,33.90
2022-07-29T07:04:13.607Z,30.35
2022-07-29T07:06:43.231Z,33.28
2022-07-29T07:09:13.856Z,33.08
2022-07-29T07:11:43.233Z,31.27
2022-07-29T07:14:12.501Z,32.85
2022-07-29T07:16:42.126Z,32.53
2022-07-29T07:19:11.560Z,34.63
2022-07-29T07:21:43.504Z,32.33
2022-07-29T07:24:14.440Z,31.13
2022-07-29T07:26:44.124Z,28.65
2022-07-29T07:29:14.100Z,29.45
2022-07-29T07:31:43.566Z,31.17
2022-07-29T07:34:13.020Z,32.05
2022-07-29T07:36:42.644Z,31.45
2022-07-29T07:39:13.353Z,30.10
2022-07-29T07:41:42.798Z,29.98
2022-07-29T07:44:15.966Z,31.20
2022-07-29T07:46:46.023Z,31.63
2022-07-29T07:49:15.387Z,33.92
2022-07-29T07:51:44.635Z,35.13
2022-07-29T07:54:21.660Z,32.60
2022-07-29T07:56:53.327Z,32.53
2022-07-29T07:59:23.317Z,31.70
2022-07-29T08:01:56.023Z,32.05
2022-07-29T08:04:28.649Z,33.13
2022-07-29T08:06:59.414Z,36.05
2022-07-29T08:09:31.681Z,33.30
2022-07-29T08:14:32.899Z,27.30
2022-07-29T08:17:02.582Z,30.15
2022-07-29T08:19:31.871Z,31.65
2022-07-29T08:22:01.326Z,32.13
2022-07-29T08:24:54.871Z,32.35
2022-07-29T08:27:43.090Z,27.92
2022-07-29T08:30:13.690Z,30.98
2022-07-29T08:32:53.657Z,32.45
2022-07-29T08:35:25.591Z,29.33
2022-07-29T08:37:56.820Z,28.98
2022-07-29T08:40:32.051Z,31.17
2022-07-29T08:43:07.451Z,29.42
2022-07-29T08:45:48.087Z,29.42
2022-07-29T08:48:19.458Z,32.60
2022-07-29T08:50:50.602Z,31.50
2022-07-29T08:53:20.965Z,27.25
2022-07-29T08:55:52.667Z,56.22
2022-07-29T08:58:24.654Z,40.97
2022-07-29T09:00:58.046Z,69.38
2022-07-29T09:03:32.298Z,74.55
2022-07-29T09:06:02.861Z,58.63
2022-07-29T09:08:34.341Z,85.22
2022-07-29T09:11:05.837Z,116.30
2022-07-29T09:13:38.670Z,100.07
2022-07-29T09:16:09.804Z,86.90
2022-07-29T09:18:42.171Z,105.72
2022-07-29T09:24:08.809Z,85.43
2022-07-29T09:26:43.655Z,92.90
2022-07-29T09:29:15.194Z,114.13
2022-07-29T09:31:46.893Z,106.47
2022-07-29T09:34:18.657Z,90.28
2022-07-29T09:36:50.296Z,67.20
2022-07-29T09:39:32.210Z,81.68
2022-07-29T09:42:05.595Z,63.38
2022-07-29T09:44:47.159Z,38.40
2022-07-29T09:47:17.444Z,44.53
2022-07-29T09:49:59.461Z,48.20
2022-07-29T09:52:30.993Z,50.75
2022-07-29T09:55:08.437Z,51.10
2022-07-29T09:57:39.872Z,70.22
2022-07-29T10:00:12.065Z,48.05
2022-07-29T10:05:22.243Z,49.67
2022-07-29T10:07:57.394Z,57.75
2022-07-29T10:10:29.448Z,57.28
2022-07-29T10:13:07.119Z,57.45
2022-07-29T10:15:42.050Z,45.15
2022-07-29T10:18:13.293Z,52.25
2022-07-29T10:20:43.508Z,57.15
2022-07-29T10:23:13.745Z,49.25
2022-07-29T10:25:46.214Z,58.17
2022-07-29T10:28:17.401Z,70.43
2022-07-29T10:30:48.322Z,70.57
2022-07-29T10:33:38.845Z,71.95
2022-07-29T10:36:25.657Z,68.03
2022-07-29T10:39:07.572Z,55.47
2022-07-29T10:41:58.697Z,82.90
2022-07-29T10:44:30.228Z,64.32
2022-07-29T10:46:59.574Z,64.65
2022-07-29T10:49:31.165Z,69.03
2022-07-29T10:52:05.996Z,59.50
2022-07-29T10:54:52.641Z,61.25
2022-07-29T10:57:53.140Z,53.70
2022-07-29T11:00:35.164Z,59.25
2022-07-29T11:03:10.521Z,62.38
2022-07-29T11:05:59.403Z,77.55
2022-07-29T11:08:31.855Z,84.18
2022-07-29T11:11:43.790Z,78.65
2022-07-29T11:15:02.765Z,72.45
2022-07-29T11:18:15.111Z,99.57
2022-07-29T11:20:51.163Z,84.93
2022-07-29T11:23:25.659Z,80.25
2022-07-29T11:26:23.405Z,90.47
2022-07-29T11:29:08.351Z,81.88
2022-07-29T11:31:42.444Z,81.53
2022-07-29T11:34:27.819Z,71.65
2022-07-29T11:40:20.258Z,91.47
2022-07-29T11:42:54.990Z,105.75
2022-07-29T11:45:42.496Z,88.18
2022-07-29T11:48:29.466Z,72.88
2022-07-29T11:51:09.347Z,82.25
2022-07-29T11:53:41.004Z,75.07
2022-07-29T11:56:17.182Z,82.22
2022-07-29T11:58:47.783Z,75.50
2022-07-29T12:01:20.524Z,80.10
2022-07-29T12:03:51.033Z,72.57
2022-07-29T12:06:21.807Z,85.07
2022-07-29T12:08:51.518Z,88.82
2022-07-29T12:11:23.559Z,106.85
2022-07-29T12:13:53.986Z,72.55
2022-07-29T12:16:29.272Z,78.30
2022-07-29T12:19:02.443Z,76.05
2022-07-29T12:21:53.817Z,81.68
2022-07-29T12:24:27.439Z,90.30
2022-07-29T12:27:00.281Z,77.18
2022-07-29T12:29:33.655Z,81.20
2022-07-29T12:32:04.776Z,95.97
2022-07-29T12:34:34.988Z,85.38
2022-07-29T12:37:10.660Z,72.13
2022-07-29T12:39:40.225Z,89.07
2022-07-29T12:42:15.076Z,89.60
2022-07-29T12:44:52.730Z,62.22
2022-07-29T12:47:23.184Z,65.15
2022-07-29T12:49:53.661Z,71.68
2022-07-29T12:52:36.265Z,103.78
2022-07-29T12:55:06.811Z,61.75
2022-07-29T12:57:48.642Z,82.22
2022-07-29T13:00:18.979Z,70.00
2022-07-29T13:02:58.387Z,77.70
2022-07-29T13:05:48.550Z,73.60
2022-07-29T13:08:22.324Z,77.50
2022-07-29T13:10:52.603Z,80.28
2022-07-29T13:13:21.939Z,102.70
2022-07-29T13:16:09.564Z,67.35
2022-07-29T13:18:38.945Z,80.57
2022-07-29T13:21:16.135Z,84.88
2022-07-29T13:23:47.387Z,87.72
2022-07-29T13:26:20.723Z,89.10
2022-07-29T13:28:50.202Z,97.25
2022-07-29T13:31:19.501Z,83.95
2022-07-29T13:33:48.945Z,82.78
2022-07-29T13:36:18.637Z,95.93
2022-07-29T13:38:49.385Z,85.45
2022-07-29T13:41:19.221Z,68.57
2022-07-29T13:43:49.995Z,74.32
2022-07-29T13:46:19.600Z,87.90
2022-07-29T13:48:48.964Z,71.28
2022-07-29T13:51:18.444Z,75.43
2022-07-29T13:53:49.012Z,115.47
2022-07-29T13:56:18.391Z,80.70
2022-07-29T13:58:48.651Z,75.88
2022-07-29T14:01:18.033Z,83.38
2022-07-29T14:03:47.462Z,96.90
2022-07-29T14:06:16.638Z,88.50
2022-07-29T14:08:49.054Z,110.28
2022-07-29T14:11:18.705Z,95.97
2022-07-29T14:13:47.937Z,85.07
2022-07-29T14:16:18.394Z,104.85
2022-07-29T14:18:48.081Z,96.07
2022-07-29T14:21:17.393Z,108.53
2022-07-29T14:23:46.540Z,69.15
2022-07-29T14:26:21.786Z,99.70
2022-07-29T14:28:53.762Z,69.57
2022-07-29T14:31:23.031Z,92.10
2022-07-29T14:33:52.604Z,85.78
2022-07-29T14:36:21.897Z,103.20
2022-07-29T14:38:51.103Z,104.47
2022-07-29T14:41:22.696Z,102.15
2022-07-29T14:43:53.199Z,100.40
2022-07-29T14:46:22.831Z,85.72
2022-07-29T14:48:52.058Z,90.65
2022-07-29T14:51:21.928Z,81.95
2022-07-29T14:53:51.224Z,95.32
2022-07-29T14:56:36.556Z,74.85
2022-07-29T14:59:06.967Z,105.93
2022-07-29T15:01:36.607Z,84.50
2022-07-29T15:04:06.674Z,79.97
2022-07-29T15:06:37.333Z,79.93
2022-07-29T15:09:06.631Z,65.50
2022-07-29T15:11:38.655Z,69.65
2022-07-29T15:14:08.395Z,77.60
2022-07-29T15:16:38.870Z,71.18
2022-07-29T15:19:08.496Z,92.03
2022-07-29T15:21:48.229Z,79.13
2022-07-29T15:24:18.613Z,69.93
2022-07-29T15:26:50.363Z,90.07
2022-07-29T15:29:19.773Z,84.80
2022-07-29T15:31:49.339Z,78.97
2022-07-29T15:34:18.757Z,109.60
2022-07-29T15:36:52.926Z,93.20
2022-07-29T15:39:24.025Z,61.65
2022-07-29T15:41:55.316Z,88.97
2022-07-29T15:44:24.947Z,75.17
2022-07-29T15:47:07.442Z,67.95
2022-07-29T15:52:26.225Z,72.73
2022-07-29T15:54:57.960Z,86.32
2022-07-29T15:57:28.805Z,78.05
2022-07-29T15:59:58.414Z,65.43
2022-07-29T16:02:27.770Z,78.22
2022-07-29T16:04:56.922Z,72.30
2022-07-29T16:07:31.386Z,97.15
2022-07-29T16:10:02.131Z,78.25
2022-07-29T16:12:33.437Z,80.15
2022-07-29T16:15:07.535Z,75.93
2022-07-29T16:17:39.170Z,82.38
2022-07-29T16:20:10.542Z,96.90
2022-07-29T16:22:41.882Z,68.78
2022-07-29T16:25:11.670Z,63.67
2022-07-29T16:27:42.408Z,72.68
2022-07-29T16:30:12.684Z,73.35
2022-07-29T16:32:41.954Z,70.03
2022-07-29T16:35:11.853Z,91.35
2022-07-29T16:37:41.109Z,59.05
2022-07-29T16:40:11.587Z,99.82
2022-07-29T16:42:47.253Z,81.40
2022-07-29T16:45:21.235Z,77.40
2022-07-29T16:47:51.577Z,79.47
2022-07-29T16:50:22.092Z,91.88
2022-07-29T16:52:52.172Z,81.78
2022-07-29T16:55:21.729Z,88.75
2022-07-29T16:57:53.706Z,83.57
2022-07-29T17:00:24.058Z,90.60
2022-07-29T17:02:53.367Z,76.85
2022-07-29T17:05:22.627Z,90.00
2022-07-29T17:07:52.332Z,87.18
2022-07-29T17:10:22.516Z,95.85
2022-07-29T17:12:53.917Z,83.03
2022-07-29T17:15:23.443Z,107.32
2022-07-29T17:17:55.197Z,102.75
2022-07-29T17:20:27.031Z,58.05
2022-07-29T17:22:56.456Z,86.88
2022-07-29T17:25:26.133Z,86.18
2022-07-29T17:28:00.760Z,89.03
2022-07-29T17:30:31.073Z,82.05
2022-07-29T17:33:00.405Z,84.38
2022-07-29T17:35:47.099Z,101.65
2022-07-29T17:38:16.314Z,97.65
2022-07-29T17:40:45.454Z,83.00
2022-07-29T17:43:16.239Z,82.13
2022-07-29T17:45:50.052Z,79.72
2022-07-29T17:48:20.884Z,84.95
2022-07-29T17:50:50.789Z,98.15
2022-07-29T17:53:20.292Z,89.03
2022-07-29T17:55:49.776Z,82.10
2022-07-29T17:58:20.495Z,75.15
2022-07-29T18:00:50.267Z,83.18
2022-07-29T18:03:20.831Z,89.60
2022-07-29T18:05:50.665Z,86.40
2022-07-29T18:08:19.932Z,90.30
2022-07-29T18:10:49.192Z,89.50
2022-07-29T18:13:20.286Z,85.70
2022-07-29T18:15:49.657Z,99.78
2022-07-29T18:18:19.109Z,87.00
2022-07-29T18:20:48.665Z,64.35
2022-07-29T18:23:18.155Z,82.43
2022-07-29T18:25:47.347Z,87.55
2022-07-29T18:28:16.822Z,80.93
2022-07-29T18:30:48.178Z,95.68
2022-07-29T18:33:21.833Z,79.22
2022-07-29T18:36:11.109Z,78.53
2022-07-29T18:38:41.761Z,98.20
2022-07-29T18:41:11.552Z,86.97
2022-07-29T18:43:40.794Z,63.88
2022-07-29T18:46:11.509Z,74.80
2022-07-29T18:48:42.153Z,98.07
2022-07-29T18:51:11.814Z,93.82
2022-07-29T18:53:41.122Z,106.40
2022-07-29T18:56:10.404Z,80.82
2022-07-29T18:58:40.834Z,94.30
2022-07-29T19:01:16.308Z,76.90
2022-07-29T19:03:46.046Z,101.88
2022-07-29T19:06:15.432Z,65.32
2022-07-29T19:08:44.656Z,79.70
2022-07-29T19:11:14.094Z,71.85
2022-07-29T19:13:44.388Z,75.80
2022-07-29T19:16:15.352Z,84.95
2022-07-29T19:18:44.783Z,66.03
2022-07-29T19:21:13.962Z,75.43
2022-07-29T19:24:00.766Z,68.25
2022-07-29T19:26:36.577Z,61.90
2022-07-29T19:29:06.483Z,56.75
2022-07-29T19:31:37.205Z,57.72
2022-07-29T19:34:06.480Z,66.13
2022-07-29T19:36:36.766Z,59.38
2022-07-29T19:39:06.818Z,64.65
2022-07-29T19:41:36.559Z,66.35
2022-07-29T19:44:08.901Z,81.72
2022-07-29T19:46:39.687Z,56.92
2022-07-29T19:49:10.346Z,62.50
2022-07-29T19:51:39.810Z,54.40
2022-07-29T19:54:10.000Z,67.05
2022-07-29T19:56:42.143Z,70.70
2022-07-29T19:59:11.790Z,55.35
2022-07-29T20:01:43.212Z,75.90
2022-07-29T20:04:12.515Z,74.35
2022-07-29T20:06:41.749Z,52.85
2022-07-29T20:09:16.656Z,61.83
2022-07-29T20:11:50.259Z,60.58
2022-07-29T20:14:19.913Z,65.75
2022-07-29T20:16:50.624Z,92.47
2022-07-29T20:19:20.035Z,67.50
2022-07-29T20:21:50.811Z,66.45
2022-07-29T20:24:20.521Z,70.25
2022-07-29T20:26:50.550Z,59.97
2022-07-29T20:29:20.055Z,78.10
2022-07-29T20:31:53.264Z,59.28
2022-07-29T20:34:26.829Z,56.03
2022-07-29T20:36:56.693Z,69.60
2022-07-29T20:39:27.664Z,66.97
2022-07-29T20:41:57.133Z,53.95
2022-07-29T20:44:26.384Z,53.53
2022-07-29T20:46:57.376Z,58.55
2022-07-29T20:49:27.324Z,61.42
2022-07-29T20:51:57.023Z,62.92
2022-07-29T20:54:28.788Z,66.20
2022-07-29T20:56:58.452Z,63.60
2022-07-29T20:59:28.097Z,51.17
2022-07-29T21:01:58.843Z,58.97
2022-07-29T21:04:30.758Z,55.72
2022-07-29T21:07:00.816Z,54.45
2022-07-29T21:09:31.073Z,48.97
2022-07-29T21:12:00.781Z,53.88
2022-07-29T21:14:47.758Z,47.50
2022-07-29T21:17:21.264Z,52.10
2022-07-29T21:19:52.811Z,54.40
2022-07-29T21:22:22.978Z,51.03
2022-07-29T21:24:52.373Z,54.63
2022-07-29T21:27:38.953Z,53.90
2022-07-29T21:30:10.547Z,53.05
2022-07-29T21:32:41.220Z,54.22
2022-07-29T21:35:22.397Z,51.33
2022-07-29T21:38:01.696Z,51.60
2022-07-29T21:40:30.913Z,53.25
2022-07-29T21:43:00.307Z,51.65
2022-07-29T21:45:29.655Z,52.97
2022-07-29T21:48:00.331Z,51.28
2022-07-29T21:50:29.590Z,52.90
2022-07-29T21:52:59.218Z,55.85
2022-07-29T21:55:28.836Z,56.53
2022-07-29T21:57:59.777Z,43.40
2022-07-29T22:00:31.250Z,52.50
2022-07-29T22:03:03.362Z,46.15
2022-07-29T22:05:33.227Z,42.88
2022-07-29T22:08:02.620Z,46.03
2022-07-29T22:10:33.631Z,51.40
2022-07-29T22:13:04.217Z,88.00
2022-07-29T22:15:33.766Z,54.10
2022-07-29T22:18:04.585Z,66.28
2022-07-29T22:20:34.065Z,41.72
2022-07-29T22:23:04.165Z,55.63
2022-07-29T22:25:33.515Z,46.30
2022-07-29T22:28:02.815Z,41.80
2022-07-29T22:30:32.173Z,42.38
2022-07-29T22:33:01.440Z,59.72
2022-07-29T22:35:32.353Z,45.75
2022-07-29T22:38:01.934Z,53.03
2022-07-29T22:40:34.917Z,48.25
2022-07-29T22:43:05.201Z,52.20
2022-07-29T22:45:34.738Z,45.78
2022-07-29T22:48:04.186Z,64.22
2022-07-29T22:50:35.281Z,43.83
2022-07-29T22:53:04.799Z,37.13
2022-07-29T22:55:34.297Z,56.15
2022-07-29T22:58:03.692Z,53.30
2022-07-29T23:00:33.368Z,75.07
2022-07-29T23:03:02.807Z,49.22
2022-07-29T23:05:32.804Z,58.47
2022-07-29T23:08:03.763Z,42.08
2022-07-29T23:10:33.575Z,97.53
2022-07-29T23:13:02.999Z,59.58
2022-07-29T23:15:32.584Z,38.15
2022-07-29T23:18:02.287Z,35.97
2022-07-29T23:20:31.709Z,44.10
2022-07-29T23:23:02.398Z,53.88
2022-07-29T23:25:32.115Z,45.95
2022-07-29T23:28:01.572Z,43.92
2022-07-29T23:30:31.428Z,45.30
2022-07-29T23:33:00.847Z,43.33
2022-07-29T23:35:30.093Z,48.28
2022-07-29T23:37:59.405Z,46.00
2022-07-29T23:40:30.341Z,48.70
2022-07-29T23:42:59.738Z,42.95
2022-07-29T23:45:39.988Z,111.35
2022-07-29T23:48:14.676Z,95.30
2022-07-29T23:50:44.162Z,41.83
2022-07-29T23:53:13.480Z,46.40
2022-07-29T23:55:44.077Z,49.60
2022-07-29T23:58:13.500Z,50.45
